sensor_id;sensor_type;location;lat;lon;timestamp;P1;durP1;ratioP1;P2;durP2;ratioP2
40541;SDS011;49288;52.194;5.676;2023-10-13T00:04:33;34.70;;;15.37;;
40541;SDS011;49288;52.194;5.676;2023-10-13T00:09:39;32.75;;;15.15;;
40541;SDS011;49288;52.194;5.676;2023-10-13T00:14:42;44.13;;;17.65;;
40541;SDS011;49288;52.194;5.676;2023-10-13T00:19:48;41.60;;;16.90;;
40541;SDS011;49288;52.194;5.676;2023-10-13T00:24:55;44.28;;;19.25;;
40541;SDS011;49288;52.194;5.676;2023-10-13T00:30:05;37.78;;;16.83;;
40541;SDS011;49288;52.194;5.676;2023-10-13T00:35:18;41.30;;;17.13;;
40541;SDS011;49288;52.194;5.676;2023-10-13T00:40:27;48.00;;;19.38;;
40541;SDS011;49288;52.194;5.676;2023-10-13T00:45:33;28.88;;;14.95;;
40541;SDS011;49288;52.194;5.676;2023-10-13T00:50:37;38.63;;;18.85;;
40541;SDS011;49288;52.194;5.676;2023-10-13T00:55:40;38.85;;;17.90;;
40541;SDS011;49288;52.194;5.676;2023-10-13T01:00:44;43.38;;;17.13;;
40541;SDS011;49288;52.194;5.676;2023-10-13T01:05:51;38.90;;;18.25;;
40541;SDS011;49288;52.194;5.676;2023-10-13T01:10:58;41.33;;;17.38;;
40541;SDS011;49288;52.194;5.676;2023-10-13T01:16:02;39.60;;;18.75;;
40541;SDS011;49288;52.194;5.676;2023-10-13T01:21:09;44.33;;;19.85;;
40541;SDS011;49288;52.194;5.676;2023-10-13T01:26:12;41.15;;;19.58;;
40541;SDS011;49288;52.194;5.676;2023-10-13T01:31:22;40.15;;;19.52;;
40541;SDS011;49288;52.194;5.676;2023-10-13T01:36:33;33.05;;;16.83;;
40541;SDS011;49288;52.194;5.676;2023-10-13T01:41:40;32.72;;;17.33;;
40541;SDS011;49288;52.194;5.676;2023-10-13T01:46:44;30.45;;;17.15;;
40541;SDS011;49288;52.194;5.676;2023-10-13T01:51:48;35.50;;;17.88;;
40541;SDS011;49288;52.194;5.676;2023-10-13T01:56:51;34.90;;;19.48;;
40541;SDS011;49288;52.194;5.676;2023-10-13T02:01:54;40.28;;;19.45;;
40541;SDS011;49288;52.194;5.676;2023-10-13T02:07:01;34.83;;;17.02;;
40541;SDS011;49288;52.194;5.676;2023-10-13T02:12:04;31.58;;;15.43;;
40541;SDS011;49288;52.194;5.676;2023-10-13T02:17:07;38.47;;;17.70;;
40541;SDS011;49288;52.194;5.676;2023-10-13T02:22:16;36.33;;;18.10;;
40541;SDS011;49288;52.194;5.676;2023-10-13T02:27:33;38.20;;;18.13;;
40541;SDS011;49288;52.194;5.676;2023-10-13T02:32:44;38.55;;;16.25;;
40541;SDS011;49288;52.194;5.676;2023-10-13T02:37:47;33.22;;;15.63;;
40541;SDS011;49288;52.194;5.676;2023-10-13T02:43:00;37.13;;;15.97;;
40541;SDS011;49288;52.194;5.676;2023-10-13T02:48:04;37.80;;;16.33;;
40541;SDS011;49288;52.194;5.676;2023-10-13T02:53:20;26.17;;;12.65;;
40541;SDS011;49288;52.194;5.676;2023-10-13T02:58:25;27.13;;;13.93;;
40541;SDS011;49288;52.194;5.676;2023-10-13T03:03:41;22.45;;;13.20;;
40541;SDS011;49288;52.194;5.676;2023-10-13T03:08:45;27.20;;;14.73;;
40541;SDS011;49288;52.194;5.676;2023-10-13T03:13:49;32.35;;;15.70;;
40541;SDS011;49288;52.194;5.676;2023-10-13T03:18:55;27.98;;;14.32;;
40541;SDS011;49288;52.194;5.676;2023-10-13T03:29:09;21.20;;;12.02;;
40541;SDS011;49288;52.194;5.676;2023-10-13T03:34:15;30.08;;;12.98;;
40541;SDS011;49288;52.194;5.676;2023-10-13T03:39:22;24.98;;;12.10;;
40541;SDS011;49288;52.194;5.676;2023-10-13T03:44:32;24.13;;;11.68;;
40541;SDS011;49288;52.194;5.676;2023-10-13T03:49:35;20.38;;;10.82;;
40541;SDS011;49288;52.194;5.676;2023-10-13T03:54:40;22.80;;;11.55;;
40541;SDS011;49288;52.194;5.676;2023-10-13T03:59:46;21.20;;;10.75;;
40541;SDS011;49288;52.194;5.676;2023-10-13T04:09:57;28.27;;;10.90;;
40541;SDS011;49288;52.194;5.676;2023-10-13T04:15:18;25.75;;;10.93;;
40541;SDS011;49288;52.194;5.676;2023-10-13T04:20:24;26.08;;;11.63;;
40541;SDS011;49288;52.194;5.676;2023-10-13T04:25:35;24.25;;;11.23;;
40541;SDS011;49288;52.194;5.676;2023-10-13T04:31:02;16.65;;;8.52;;
40541;SDS011;49288;52.194;5.676;2023-10-13T04:36:15;15.43;;;9.02;;
40541;SDS011;49288;52.194;5.676;2023-10-13T04:41:24;19.30;;;7.28;;
40541;SDS011;49288;52.194;5.676;2023-10-13T04:46:46;20.20;;;9.43;;
40541;SDS011;49288;52.194;5.676;2023-10-13T04:52:08;17.50;;;8.85;;
40541;SDS011;49288;52.194;5.676;2023-10-13T04:57:11;16.80;;;8.47;;
40541;SDS011;49288;52.194;5.676;2023-10-13T05:02:51;20.45;;;9.38;;
40541;SDS011;49288;52.194;5.676;2023-10-13T05:08:03;15.75;;;8.30;;
40541;SDS011;49288;52.194;5.676;2023-10-13T05:13:25;16.33;;;8.38;;
40541;SDS011;49288;52.194;5.676;2023-10-13T05:18:46;17.52;;;7.50;;
40541;SDS011;49288;52.194;5.676;2023-10-13T05:24:08;15.55;;;7.70;;
40541;SDS011;49288;52.194;5.676;2023-10-13T05:29:29;13.43;;;7.72;;
40541;SDS011;49288;52.194;5.676;2023-10-13T05:34:51;16.98;;;9.10;;
40541;SDS011;49288;52.194;5.676;2023-10-13T05:40:12;19.92;;;9.43;;
40541;SDS011;49288;52.194;5.676;2023-10-13T05:45:35;23.85;;;12.35;;
40541;SDS011;49288;52.194;5.676;2023-10-13T05:50:59;25.50;;;11.50;;
40541;SDS011;49288;52.194;5.676;2023-10-13T05:56:22;23.90;;;10.15;;
40541;SDS011;49288;52.194;5.676;2023-10-13T06:01:45;23.23;;;7.93;;
40541;SDS011;49288;52.194;5.676;2023-10-13T06:07:08;16.83;;;6.70;;
40541;SDS011;49288;52.194;5.676;2023-10-13T06:12:29;25.50;;;7.75;;
40541;SDS011;49288;52.194;5.676;2023-10-13T06:17:51;20.63;;;8.32;;
40541;SDS011;49288;52.194;5.676;2023-10-13T06:23:16;23.52;;;8.93;;
40541;SDS011;49288;52.194;5.676;2023-10-13T06:28:37;26.92;;;8.77;;
40541;SDS011;49288;52.194;5.676;2023-10-13T06:33:43;26.73;;;10.07;;
40541;SDS011;49288;52.194;5.676;2023-10-13T06:38:49;24.70;;;10.50;;
40541;SDS011;49288;52.194;5.676;2023-10-13T06:44:18;22.63;;;10.65;;
40541;SDS011;49288;52.194;5.676;2023-10-13T06:49:21;28.67;;;12.10;;
40541;SDS011;49288;52.194;5.676;2023-10-13T06:54:28;27.42;;;10.23;;
40541;SDS011;49288;52.194;5.676;2023-10-13T06:59:31;19.83;;;9.57;;
40541;SDS011;49288;52.194;5.676;2023-10-13T07:04:37;27.77;;;10.45;;
40541;SDS011;49288;52.194;5.676;2023-10-13T07:09:43;23.10;;;11.35;;
40541;SDS011;49288;52.194;5.676;2023-10-13T07:14:57;26.05;;;11.43;;
40541;SDS011;49288;52.194;5.676;2023-10-13T07:20:18;21.60;;;11.35;;
40541;SDS011;49288;52.194;5.676;2023-10-13T07:25:31;18.88;;;7.10;;
40541;SDS011;49288;52.194;5.676;2023-10-13T07:30:42;27.73;;;12.88;;
40541;SDS011;49288;52.194;5.676;2023-10-13T07:36:01;17.95;;;9.88;;
40541;SDS011;49288;52.194;5.676;2023-10-13T07:41:18;19.05;;;9.77;;
40541;SDS011;49288;52.194;5.676;2023-10-13T07:46:24;25.38;;;9.93;;
40541;SDS011;49288;52.194;5.676;2023-10-13T07:51:33;17.88;;;7.88;;
40541;SDS011;49288;52.194;5.676;2023-10-13T07:56:46;19.80;;;9.82;;
40541;SDS011;49288;52.194;5.676;2023-10-13T08:01:55;23.55;;;9.48;;
40541;SDS011;49288;52.194;5.676;2023-10-13T08:07:18;27.25;;;8.38;;
40541;SDS011;49288;52.194;5.676;2023-10-13T08:12:30;36.63;;;9.75;;
40541;SDS011;49288;52.194;5.676;2023-10-13T08:17:35;27.40;;;9.77;;
40541;SDS011;49288;52.194;5.676;2023-10-13T08:22:39;16.95;;;7.35;;
40541;SDS011;49288;52.194;5.676;2023-10-13T08:27:49;25.83;;;9.35;;
40541;SDS011;49288;52.194;5.676;2023-10-13T08:33:07;29.05;;;9.88;;
40541;SDS011;49288;52.194;5.676;2023-10-13T08:38:19;25.85;;;9.27;;
40541;SDS011;49288;52.194;5.676;2023-10-13T08:43:32;31.37;;;9.87;;
40541;SDS011;49288;52.194;5.676;2023-10-13T08:48:45;33.92;;;8.85;;
40541;SDS011;49288;52.194;5.676;2023-10-13T08:53:50;30.13;;;9.35;;
40541;SDS011;49288;52.194;5.676;2023-10-13T08:59:00;26.15;;;8.32;;
40541;SDS011;49288;52.194;5.676;2023-10-13T09:04:06;23.10;;;8.30;;
40541;SDS011;49288;52.194;5.676;2023-10-13T09:09:29;22.25;;;7.90;;
40541;SDS011;49288;52.194;5.676;2023-10-13T09:14:53;28.67;;;8.07;;
40541;SDS011;49288;52.194;5.676;2023-10-13T09:25:23;27.27;;;8.52;;
40541;SDS011;49288;52.194;5.676;2023-10-13T09:30:26;32.17;;;8.73;;
40541;SDS011;49288;52.194;5.676;2023-10-13T09:35:34;29.23;;;9.02;;
40541;SDS011;49288;52.194;5.676;2023-10-13T09:40:39;31.38;;;9.43;;
40541;SDS011;49288;52.194;5.676;2023-10-13T09:45:49;23.27;;;8.85;;
40541;SDS011;49288;52.194;5.676;2023-10-13T09:51:05;21.10;;;7.32;;
40541;SDS011;49288;52.194;5.676;2023-10-13T09:56:12;26.27;;;8.70;;
40541;SDS011;49288;52.194;5.676;2023-10-13T10:01:22;21.85;;;6.55;;
40541;SDS011;49288;52.194;5.676;2023-10-13T10:06:34;33.47;;;9.55;;
40541;SDS011;49288;52.194;5.676;2023-10-13T10:17:20;28.05;;;8.65;;
40541;SDS011;49288;52.194;5.676;2023-10-13T10:22:24;28.07;;;9.47;;
40541;SDS011;49288;52.194;5.676;2023-10-13T10:27:36;27.60;;;8.93;;
40541;SDS011;49288;52.194;5.676;2023-10-13T10:32:38;25.88;;;8.40;;
40541;SDS011;49288;52.194;5.676;2023-10-13T10:37:51;29.75;;;10.15;;
40541;SDS011;49288;52.194;5.676;2023-10-13T10:42:55;25.95;;;9.55;;
40541;SDS011;49288;52.194;5.676;2023-10-13T10:48:15;33.60;;;9.88;;
40541;SDS011;49288;52.194;5.676;2023-10-13T10:53:23;31.88;;;9.30;;
40541;SDS011;49288;52.194;5.676;2023-10-13T10:58:48;26.58;;;8.98;;
40541;SDS011;49288;52.194;5.676;2023-10-13T11:03:58;32.58;;;8.52;;
40541;SDS011;49288;52.194;5.676;2023-10-13T11:09:10;28.80;;;9.77;;
40541;SDS011;49288;52.194;5.676;2023-10-13T11:14:33;23.30;;;9.82;;
40541;SDS011;49288;52.194;5.676;2023-10-13T11:19:39;30.38;;;9.70;;
40541;SDS011;49288;52.194;5.676;2023-10-13T11:24:43;26.35;;;9.45;;
40541;SDS011;49288;52.194;5.676;2023-10-13T11:29:46;30.65;;;8.88;;
40541;SDS011;49288;52.194;5.676;2023-10-13T11:34:58;36.35;;;10.45;;
40541;SDS011;49288;52.194;5.676;2023-10-13T11:40:01;28.25;;;9.50;;
40541;SDS011;49288;52.194;5.676;2023-10-13T11:45:18;29.73;;;8.57;;
40541;SDS011;49288;52.194;5.676;2023-10-13T11:50:38;27.95;;;9.20;;
40541;SDS011;49288;52.194;5.676;2023-10-13T11:55:41;42.75;;;10.13;;
40541;SDS011;49288;52.194;5.676;2023-10-13T12:00:43;26.17;;;8.40;;
40541;SDS011;49288;52.194;5.676;2023-10-13T12:06:08;34.05;;;9.68;;
40541;SDS011;49288;52.194;5.676;2023-10-13T12:11:30;29.52;;;8.80;;
40541;SDS011;49288;52.194;5.676;2023-10-13T12:16:33;42.65;;;9.88;;
40541;SDS011;49288;52.194;5.676;2023-10-13T12:21:37;26.55;;;9.48;;
40541;SDS011;49288;52.194;5.676;2023-10-13T12:26:40;29.90;;;9.33;;
40541;SDS011;49288;52.194;5.676;2023-10-13T12:31:45;38.45;;;9.65;;
40541;SDS011;49288;52.194;5.676;2023-10-13T12:36:54;26.55;;;8.32;;
40541;SDS011;49288;52.194;5.676;2023-10-13T12:42:08;34.70;;;9.88;;
40541;SDS011;49288;52.194;5.676;2023-10-13T12:47:29;27.10;;;9.60;;
40541;SDS011;49288;52.194;5.676;2023-10-13T12:52:52;29.42;;;8.45;;
40541;SDS011;49288;52.194;5.676;2023-10-13T13:03:02;24.92;;;8.77;;
40541;SDS011;49288;52.194;5.676;2023-10-13T13:08:14;34.40;;;9.03;;
40541;SDS011;49288;52.194;5.676;2023-10-13T13:13:24;29.65;;;9.35;;
40541;SDS011;49288;52.194;5.676;2023-10-13T13:18:28;23.10;;;9.03;;
40541;SDS011;49288;52.194;5.676;2023-10-13T13:28:36;29.25;;;9.20;;
40541;SDS011;49288;52.194;5.676;2023-10-13T13:33:40;32.83;;;10.52;;
40541;SDS011;49288;52.194;5.676;2023-10-13T13:38:45;35.47;;;10.07;;
40541;SDS011;49288;52.194;5.676;2023-10-13T13:43:49;33.30;;;10.73;;
40541;SDS011;49288;52.194;5.676;2023-10-13T13:48:53;30.42;;;9.55;;
40541;SDS011;49288;52.194;5.676;2023-10-13T13:54:09;31.63;;;10.48;;
40541;SDS011;49288;52.194;5.676;2023-10-13T13:59:12;24.13;;;10.30;;
40541;SDS011;49288;52.194;5.676;2023-10-13T14:04:35;29.43;;;11.57;;
40541;SDS011;49288;52.194;5.676;2023-10-13T14:09:38;28.85;;;10.20;;
40541;SDS011;49288;52.194;5.676;2023-10-13T14:14:46;25.90;;;10.45;;
40541;SDS011;49288;52.194;5.676;2023-10-13T14:19:58;30.92;;;10.48;;
40541;SDS011;49288;52.194;5.676;2023-10-13T14:25:01;36.07;;;11.30;;
40541;SDS011;49288;52.194;5.676;2023-10-13T14:30:11;30.13;;;9.77;;
40541;SDS011;49288;52.194;5.676;2023-10-13T14:35:22;26.55;;;10.98;;
40541;SDS011;49288;52.194;5.676;2023-10-13T14:40:28;36.50;;;9.80;;
40541;SDS011;49288;52.194;5.676;2023-10-13T14:45:31;26.23;;;8.98;;
40541;SDS011;49288;52.194;5.676;2023-10-13T14:50:37;25.40;;;9.32;;
40541;SDS011;49288;52.194;5.676;2023-10-13T14:55:45;30.10;;;9.18;;
40541;SDS011;49288;52.194;5.676;2023-10-13T15:00:48;23.87;;;9.03;;
40541;SDS011;49288;52.194;5.676;2023-10-13T15:05:51;27.40;;;8.25;;
40541;SDS011;49288;52.194;5.676;2023-10-13T15:11:15;31.27;;;9.60;;
40541;SDS011;49288;52.194;5.676;2023-10-13T15:16:21;34.58;;;8.90;;
40541;SDS011;49288;52.194;5.676;2023-10-13T15:21:26;27.30;;;9.73;;
40541;SDS011;49288;52.194;5.676;2023-10-13T15:31:44;25.63;;;8.13;;
40541;SDS011;49288;52.194;5.676;2023-10-13T15:37:07;31.85;;;9.30;;
40541;SDS011;49288;52.194;5.676;2023-10-13T15:42:15;30.73;;;10.20;;
40541;SDS011;49288;52.194;5.676;2023-10-13T15:47:18;21.58;;;8.95;;
40541;SDS011;49288;52.194;5.676;2023-10-13T15:52:41;27.83;;;10.25;;
40541;SDS011;49288;52.194;5.676;2023-10-13T15:57:51;40.30;;;10.27;;
40541;SDS011;49288;52.194;5.676;2023-10-13T16:02:56;28.60;;;10.48;;
40541;SDS011;49288;52.194;5.676;2023-10-13T16:08:00;26.67;;;10.10;;
40541;SDS011;49288;52.194;5.676;2023-10-13T16:13:06;32.47;;;9.65;;
40541;SDS011;49288;52.194;5.676;2023-10-13T16:18:18;26.52;;;10.27;;
40541;SDS011;49288;52.194;5.676;2023-10-13T16:23:25;31.17;;;10.40;;
40541;SDS011;49288;52.194;5.676;2023-10-13T16:28:31;25.40;;;10.50;;
40541;SDS011;49288;52.194;5.676;2023-10-13T16:33:37;33.90;;;11.10;;
40541;SDS011;49288;52.194;5.676;2023-10-13T16:38:43;33.53;;;11.30;;
40541;SDS011;49288;52.194;5.676;2023-10-13T16:43:48;30.92;;;10.85;;
40541;SDS011;49288;52.194;5.676;2023-10-13T16:48:51;29.48;;;10.38;;
40541;SDS011;49288;52.194;5.676;2023-10-13T16:53:54;27.03;;;10.77;;
40541;SDS011;49288;52.194;5.676;2023-10-13T16:58:57;37.53;;;12.23;;
40541;SDS011;49288;52.194;5.676;2023-10-13T17:04:00;34.72;;;11.55;;
40541;SDS011;49288;52.194;5.676;2023-10-13T17:09:08;36.95;;;13.32;;
40541;SDS011;49288;52.194;5.676;2023-10-13T17:14:14;29.75;;;12.00;;
40541;SDS011;49288;52.194;5.676;2023-10-13T17:19:17;42.08;;;12.27;;
40541;SDS011;49288;52.194;5.676;2023-10-13T17:24:21;31.17;;;10.55;;
40541;SDS011;49288;52.194;5.676;2023-10-13T17:29:25;34.03;;;12.90;;
40541;SDS011;49288;52.194;5.676;2023-10-13T17:34:31;36.55;;;12.05;;
40541;SDS011;49288;52.194;5.676;2023-10-13T17:39:33;19.83;;;8.27;;
40541;SDS011;49288;52.194;5.676;2023-10-13T17:44:36;23.33;;;10.13;;
40541;SDS011;49288;52.194;5.676;2023-10-13T17:49:41;34.47;;;11.35;;
40541;SDS011;49288;52.194;5.676;2023-10-13T17:54:44;27.08;;;10.15;;
40541;SDS011;49288;52.194;5.676;2023-10-13T17:59:48;26.13;;;10.60;;
40541;SDS011;49288;52.194;5.676;2023-10-13T18:04:51;28.00;;;11.05;;
40541;SDS011;49288;52.194;5.676;2023-10-13T18:09:56;28.88;;;11.70;;
40541;SDS011;49288;52.194;5.676;2023-10-13T18:14:59;31.48;;;11.85;;
40541;SDS011;49288;52.194;5.676;2023-10-13T18:20:03;40.30;;;14.13;;
40541;SDS011;49288;52.194;5.676;2023-10-13T18:25:12;32.13;;;12.50;;
40541;SDS011;49288;52.194;5.676;2023-10-13T18:30:15;27.80;;;11.63;;
40541;SDS011;49288;52.194;5.676;2023-10-13T18:35:25;26.63;;;10.95;;
40541;SDS011;49288;52.194;5.676;2023-10-13T18:40:29;27.58;;;10.57;;
40541;SDS011;49288;52.194;5.676;2023-10-13T18:45:34;33.08;;;12.75;;
40541;SDS011;49288;52.194;5.676;2023-10-13T18:50:42;20.55;;;10.02;;
40541;SDS011;49288;52.194;5.676;2023-10-13T18:55:47;22.48;;;9.52;;
40541;SDS011;49288;52.194;5.676;2023-10-13T19:00:49;27.83;;;9.60;;
40541;SDS011;49288;52.194;5.676;2023-10-13T19:05:55;25.73;;;10.65;;
40541;SDS011;49288;52.194;5.676;2023-10-13T19:11:05;25.70;;;10.25;;
40541;SDS011;49288;52.194;5.676;2023-10-13T19:16:10;23.67;;;9.80;;
40541;SDS011;49288;52.194;5.676;2023-10-13T19:21:18;21.77;;;8.88;;
40541;SDS011;49288;52.194;5.676;2023-10-13T19:26:26;29.88;;;10.07;;
40541;SDS011;49288;52.194;5.676;2023-10-13T19:31:31;35.47;;;11.88;;
40541;SDS011;49288;52.194;5.676;2023-10-13T19:36:36;33.50;;;13.18;;
40541;SDS011;49288;52.194;5.676;2023-10-13T19:41:39;35.63;;;13.93;;
40541;SDS011;49288;52.194;5.676;2023-10-13T19:46:46;30.75;;;13.18;;
40541;SDS011;49288;52.194;5.676;2023-10-13T19:52:09;31.57;;;14.87;;
40541;SDS011;49288;52.194;5.676;2023-10-13T19:57:12;27.08;;;11.95;;
40541;SDS011;49288;52.194;5.676;2023-10-13T20:02:14;37.17;;;14.85;;
40541;SDS011;49288;52.194;5.676;2023-10-13T20:07:18;30.27;;;12.13;;
40541;SDS011;49288;52.194;5.676;2023-10-13T20:12:22;31.80;;;12.45;;
40541;SDS011;49288;52.194;5.676;2023-10-13T20:17:26;32.10;;;12.05;;
40541;SDS011;49288;52.194;5.676;2023-10-13T20:22:31;31.88;;;13.77;;
40541;SDS011;49288;52.194;5.676;2023-10-13T20:27:37;40.35;;;16.98;;
40541;SDS011;49288;52.194;5.676;2023-10-13T20:32:40;38.60;;;15.90;;
40541;SDS011;49288;52.194;5.676;2023-10-13T20:37:43;27.25;;;12.43;;
40541;SDS011;49288;52.194;5.676;2023-10-13T20:42:46;30.95;;;10.32;;
40541;SDS011;49288;52.194;5.676;2023-10-13T20:47:53;29.13;;;10.38;;
40541;SDS011;49288;52.194;5.676;2023-10-13T20:52:58;23.10;;;10.40;;
40541;SDS011;49288;52.194;5.676;2023-10-13T20:58:04;19.88;;;7.13;;
40541;SDS011;49288;52.194;5.676;2023-10-13T21:03:08;10.95;;;4.93;;
40541;SDS011;49288;52.194;5.676;2023-10-13T21:08:11;14.88;;;5.43;;
40541;SDS011;49288;52.194;5.676;2023-10-13T21:13:15;10.40;;;4.90;;
40541;SDS011;49288;52.194;5.676;2023-10-13T21:18:21;11.98;;;5.18;;
40541;SDS011;49288;52.194;5.676;2023-10-13T21:23:24;15.45;;;5.53;;
40541;SDS011;49288;52.194;5.676;2023-10-13T21:28:27;11.93;;;5.45;;
40541;SDS011;49288;52.194;5.676;2023-10-13T21:33:30;14.05;;;6.28;;
40541;SDS011;49288;52.194;5.676;2023-10-13T21:38:33;13.13;;;6.18;;
40541;SDS011;49288;52.194;5.676;2023-10-13T21:43:37;13.30;;;6.32;;
40541;SDS011;49288;52.194;5.676;2023-10-13T21:48:41;11.45;;;6.57;;
40541;SDS011;49288;52.194;5.676;2023-10-13T21:53:45;17.75;;;7.70;;
40541;SDS011;49288;52.194;5.676;2023-10-13T21:58:48;16.60;;;8.45;;
40541;SDS011;49288;52.194;5.676;2023-10-13T22:04:10;20.52;;;8.32;;
40541;SDS011;49288;52.194;5.676;2023-10-13T22:09:13;19.05;;;8.38;;
40541;SDS011;49288;52.194;5.676;2023-10-13T22:14:17;16.23;;;6.80;;
40541;SDS011;49288;52.194;5.676;2023-10-13T22:19:24;4.90;;;2.25;;
40541;SDS011;49288;52.194;5.676;2023-10-13T22:24:31;5.60;;;2.10;;
40541;SDS011;49288;52.194;5.676;2023-10-13T22:34:38;6.80;;;2.00;;
40541;SDS011;49288;52.194;5.676;2023-10-13T22:39:43;7.38;;;1.50;;
40541;SDS011;49288;52.194;5.676;2023-10-13T22:44:46;3.45;;;1.95;;
40541;SDS011;49288;52.194;5.676;2023-10-13T22:49:49;6.43;;;2.00;;
40541;SDS011;49288;52.194;5.676;2023-10-13T22:54:54;4.70;;;1.38;;
40541;SDS011;49288;52.194;5.676;2023-10-13T22:59:58;5.82;;;2.20;;
40541;SDS011;49288;52.194;5.676;2023-10-13T23:05:01;7.38;;;2.20;;
40541;SDS011;49288;52.194;5.676;2023-10-13T23:10:04;6.63;;;2.10;;
40541;SDS011;49288;52.194;5.676;2023-10-13T23:15:27;4.35;;;2.30;;
40541;SDS011;49288;52.194;5.676;2023-10-13T23:20:30;9.52;;;2.38;;
40541;SDS011;49288;52.194;5.676;2023-10-13T23:25:36;7.63;;;2.40;;
40541;SDS011;49288;52.194;5.676;2023-10-13T23:30:42;5.45;;;2.38;;
40541;SDS011;49288;52.194;5.676;2023-10-13T23:36:06;6.95;;;2.25;;
40541;SDS011;49288;52.194;5.676;2023-10-13T23:41:13;6.57;;;1.77;;
40541;SDS011;49288;52.194;5.676;2023-10-13T23:46:16;7.75;;;1.98;;
40541;SDS011;49288;52.194;5.676;2023-10-13T23:51:20;9.25;;;1.80;;
40541;SDS011;49288;52.194;5.676;2023-10-13T23:56:29;6.68;;;2.22;;
